createdAt,value
2022-10-17T00:00:03.081Z,100.00
2022-10-17T00:02:29.403Z,100.00
2022-10-17T00:04:55.762Z,100.00
2022-10-17T00:07:22.112Z,100.00
2022-10-17T00:09:48.457Z,100.00
2022-10-17T00:12:14.798Z,100.00
2022-10-17T00:14:41.295Z,100.00
2022-10-17T00:17:07.680Z,100.00
2022-10-17T00:19:34.168Z,100.00
2022-10-17T00:22:00.496Z,100.00
2022-10-17T00:24:26.903Z,100.00
2022-10-17T00:26:53.247Z,100.00
2022-10-17T00:29:19.592Z,100.00
2022-10-17T00:31:45.991Z,100.00
2022-10-17T00:34:12.394Z,100.00
2022-10-17T00:36:38.815Z,100.00
2022-10-17T00:39:05.242Z,100.00
2022-10-17T00:41:33.655Z,100.00
2022-10-17T00:44:01.718Z,100.00
2022-10-17T00:46:34.600Z,100.00
2022-10-17T00:49:06.783Z,100.00
2022-10-17T00:51:45.106Z,100.00
2022-10-17T00:54:14.582Z,100.00
2022-10-17T00:56:41.294Z,100.00
2022-10-17T00:59:10.775Z,100.00
2022-10-17T01:01:37.310Z,100.00
2022-10-17T01:04:03.844Z,100.00
2022-10-17T01:06:30.338Z,100.00
2022-10-17T01:08:56.870Z,100.00
2022-10-17T01:11:41.980Z,100.00
2022-10-17T01:14:31.516Z,100.00
2022-10-17T01:17:39.343Z,100.00
2022-10-17T01:20:37.239Z,100.00
2022-10-17T01:23:09.484Z,100.00
2022-10-17T01:26:07.367Z,100.00
2022-10-17T01:29:01.036Z,100.00
2022-10-17T01:31:39.457Z,100.00
2022-10-17T01:34:19.666Z,100.00
2022-10-17T01:37:02.718Z,100.00
2022-10-17T01:39:49.927Z,100.00
2022-10-17T01:42:28.879Z,100.00
2022-10-17T01:45:11.672Z,100.00
2022-10-17T01:47:39.770Z,100.00
2022-10-17T01:50:13.762Z,100.00
2022-10-17T01:52:47.072Z,100.00
2022-10-17T01:55:28.382Z,100.00
2022-10-17T01:58:00.973Z,100.00
2022-10-17T02:00:28.213Z,100.00
2022-10-17T02:03:01.946Z,100.00
2022-10-17T02:05:33.463Z,100.00
2022-10-17T02:07:59.781Z,100.00
2022-10-17T02:10:38.222Z,100.00
2022-10-17T02:13:09.516Z,100.00
2022-10-17T02:15:52.345Z,100.00
2022-10-17T02:18:41.627Z,100.00
2022-10-17T02:21:46.177Z,100.00
2022-10-17T02:24:32.656Z,100.00
2022-10-17T02:27:38.167Z,100.00
2022-10-17T02:30:12.638Z,100.00
2022-10-17T02:32:54.553Z,100.00
2022-10-17T02:35:25.253Z,100.00
2022-10-17T02:37:53.284Z,100.00
2022-10-17T02:40:22.768Z,100.00
2022-10-17T02:42:51.274Z,100.00
2022-10-17T02:45:17.987Z,100.00
2022-10-17T02:47:50.647Z,100.00
2022-10-17T02:50:18.243Z,100.00
2022-10-17T02:53:01.231Z,100.00
2022-10-17T02:55:34.126Z,100.00
2022-10-17T02:58:06.932Z,100.00
2022-10-17T03:00:34.631Z,100.00
2022-10-17T03:03:01.005Z,100.00
2022-10-17T03:05:29.508Z,100.00
2022-10-17T03:07:56.873Z,100.00
2022-10-17T03:10:23.633Z,100.00
2022-10-17T03:12:50.054Z,100.00
2022-10-17T03:15:16.552Z,100.00
2022-10-17T03:17:42.970Z,100.00
2022-10-17T03:20:09.779Z,100.00
2022-10-17T03:22:36.199Z,100.00
2022-10-17T03:25:02.628Z,100.00
2022-10-17T03:27:29.241Z,100.00
2022-10-17T03:29:55.746Z,100.00
2022-10-17T03:32:22.159Z,100.00
2022-10-17T03:34:48.521Z,100.00
2022-10-17T03:37:14.895Z,100.00
2022-10-17T03:39:41.230Z,100.00
2022-10-17T03:42:07.658Z,100.00
2022-10-17T03:44:34.017Z,100.00
2022-10-17T03:47:00.498Z,100.00
2022-10-17T03:49:26.841Z,100.00
2022-10-17T03:51:53.189Z,100.00
2022-10-17T03:54:19.509Z,100.00
2022-10-17T03:56:45.942Z,100.00
2022-10-17T03:59:14.390Z,100.00
2022-10-17T04:01:41.245Z,100.00
2022-10-17T04:04:08.544Z,100.00
2022-10-17T04:06:35.667Z,100.00
2022-10-17T04:09:02.593Z,100.00
2022-10-17T04:11:29.629Z,100.00
2022-10-17T04:13:57.586Z,100.00
2022-10-17T04:16:24.317Z,100.00
2022-10-17T04:18:58.571Z,100.00
2022-10-17T04:21:27.082Z,100.00
2022-10-17T04:23:58.433Z,100.00
2022-10-17T04:26:25.367Z,100.00
2022-10-17T04:28:51.902Z,100.00
2022-10-17T04:31:18.860Z,100.00
2022-10-17T04:33:49.367Z,100.00
2022-10-17T04:36:18.758Z,100.00
2022-10-17T04:38:45.224Z,100.00
2022-10-17T04:41:14.809Z,100.00
2022-10-17T04:43:43.428Z,100.00
2022-10-17T04:46:13.523Z,100.00
2022-10-17T04:48:40.777Z,100.00
2022-10-17T04:51:15.490Z,100.00
2022-10-17T04:53:42.936Z,100.00
2022-10-17T04:56:15.395Z,100.00
2022-10-17T04:58:42.860Z,100.00
2022-10-17T05:01:12.364Z,100.00
2022-10-17T05:03:38.871Z,100.00
2022-10-17T05:06:06.957Z,100.00
2022-10-17T05:08:33.739Z,100.00
2022-10-17T05:13:32.631Z,100.00
2022-10-17T05:16:00.754Z,100.00
2022-10-17T05:18:28.308Z,100.00
2022-10-17T05:20:54.973Z,100.00
2022-10-17T05:23:21.407Z,100.00
2022-10-17T05:25:47.739Z,100.00
2022-10-17T05:28:14.075Z,100.00
2022-10-17T05:30:40.547Z,100.00
2022-10-17T05:33:06.910Z,100.00
2022-10-17T05:35:33.270Z,100.00
2022-10-17T05:38:00.497Z,100.00
2022-10-17T05:40:26.930Z,100.00
2022-10-17T05:42:53.282Z,100.00
2022-10-17T05:45:19.739Z,100.00
2022-10-17T05:47:46.111Z,100.00
2022-10-17T05:50:12.541Z,100.00
2022-10-17T05:52:38.894Z,100.00
2022-10-17T05:55:06.056Z,100.00
2022-10-17T05:57:32.428Z,100.00
2022-10-17T05:59:58.785Z,100.00
2022-10-17T06:02:25.335Z,100.00
2022-10-17T06:04:51.824Z,100.00
2022-10-17T06:07:18.215Z,100.00
2022-10-17T06:12:15.943Z,100.00
2022-10-17T06:14:42.271Z,100.00
2022-10-17T06:17:13.453Z,100.00
2022-10-17T06:19:42.120Z,100.00
2022-10-17T06:22:08.519Z,100.00
2022-10-17T06:24:34.905Z,100.00
2022-10-17T06:27:01.424Z,100.00
2022-10-17T06:29:27.805Z,100.00
2022-10-17T06:31:54.370Z,100.00
2022-10-17T06:34:21.094Z,100.00
2022-10-17T06:36:47.867Z,100.00
2022-10-17T06:39:14.515Z,100.00
2022-10-17T06:41:41.615Z,100.00
2022-10-17T06:44:11.077Z,100.00
2022-10-17T06:46:38.501Z,100.00
2022-10-17T06:49:05.090Z,100.00
2022-10-17T06:51:32.195Z,100.00
2022-10-17T06:53:59.127Z,100.00
2022-10-17T06:56:25.578Z,100.00
2022-10-17T06:58:52.879Z,100.00
2022-10-17T07:01:19.253Z,100.00
2022-10-17T07:03:48.918Z,100.00
2022-10-17T07:06:15.627Z,100.00
2022-10-17T07:08:45.977Z,100.00
2022-10-17T07:11:14.928Z,100.00
2022-10-17T07:13:42.151Z,100.00
2022-10-17T07:16:09.369Z,100.00
2022-10-17T07:18:35.854Z,100.00
2022-10-17T07:21:03.692Z,100.00
2022-10-17T07:23:30.329Z,100.00
2022-10-17T07:26:17.137Z,100.00
2022-10-17T07:28:45.326Z,100.00
2022-10-17T07:31:17.557Z,100.00
2022-10-17T07:36:17.527Z,100.00
2022-10-17T07:38:44.327Z,100.00
2022-10-17T07:41:12.072Z,100.00
2022-10-17T07:43:38.927Z,100.00
2022-10-17T07:46:05.868Z,100.00
2022-10-17T07:48:32.497Z,100.00
2022-10-17T07:51:02.497Z,100.00
2022-10-17T07:53:28.978Z,100.00
2022-10-17T07:55:55.359Z,100.00
2022-10-17T07:58:21.738Z,100.00
2022-10-17T08:00:51.201Z,100.00
2022-10-17T08:03:17.770Z,100.00
2022-10-17T08:05:44.261Z,100.00
2022-10-17T08:08:10.625Z,100.00
2022-10-17T08:10:37.052Z,100.00
2022-10-17T08:13:03.466Z,100.00
2022-10-17T08:15:31.853Z,100.00
2022-10-17T08:17:59.128Z,100.00
2022-10-17T08:20:25.563Z,100.00
2022-10-17T08:22:55.714Z,100.00
2022-10-17T08:25:23.238Z,100.00
2022-10-17T08:27:50.037Z,100.00
2022-10-17T08:30:17.071Z,100.00
2022-10-17T08:32:43.564Z,100.00
2022-10-17T08:35:10.289Z,100.00
2022-10-17T08:37:36.868Z,100.00
2022-10-17T08:40:04.222Z,100.00
2022-10-17T08:43:08.600Z,100.00
2022-10-17T08:45:53.159Z,100.00
2022-10-17T08:48:24.163Z,100.00
2022-10-17T08:50:57.804Z,100.00
2022-10-17T08:53:49.579Z,100.00
2022-10-17T08:56:44.189Z,100.00
2022-10-17T08:59:30.326Z,100.00
2022-10-17T09:02:14.873Z,100.00
2022-10-17T09:04:41.241Z,100.00
2022-10-17T09:07:33.899Z,100.00
2022-10-17T09:10:28.748Z,100.00
2022-10-17T09:13:19.269Z,100.00
2022-10-17T09:16:19.328Z,100.00
2022-10-17T09:19:23.144Z,100.00
2022-10-17T09:21:56.112Z,100.00
2022-10-17T09:24:52.827Z,100.00
2022-10-17T09:27:40.476Z,100.00
2022-10-17T09:30:44.228Z,100.00
2022-10-17T09:33:28.184Z,100.00
2022-10-17T09:36:04.186Z,100.00
2022-10-17T09:38:39.179Z,100.00
2022-10-17T09:41:39.241Z,100.00
2022-10-17T09:44:13.856Z,100.00
2022-10-17T09:46:40.353Z,100.00
2022-10-17T09:49:18.734Z,100.00
2022-10-17T09:51:45.278Z,100.00
2022-10-17T09:54:26.822Z,100.00
2022-10-17T09:57:02.751Z,100.00
2022-10-17T09:59:38.680Z,100.00
2022-10-17T10:02:13.717Z,100.00
2022-10-17T10:05:21.780Z,100.00
2022-10-17T10:08:14.187Z,100.00
2022-10-17T10:10:43.992Z,100.00
2022-10-17T10:13:22.263Z,100.00
2022-10-17T10:15:50.491Z,100.00
2022-10-17T10:18:26.060Z,100.00
2022-10-17T10:21:20.220Z,100.00
2022-10-17T10:24:03.338Z,100.00
2022-10-17T10:26:46.991Z,100.00
2022-10-17T10:29:34.145Z,100.00
2022-10-17T10:32:22.177Z,100.00
2022-10-17T10:34:56.557Z,100.00
2022-10-17T10:37:29.609Z,100.00
2022-10-17T10:40:27.305Z,100.00
2022-10-17T10:43:01.281Z,100.00
2022-10-17T10:45:52.828Z,100.00
2022-10-17T10:48:27.838Z,100.00
2022-10-17T10:51:14.383Z,100.00
2022-10-17T10:54:11.590Z,98.79
2022-10-17T10:56:43.684Z,100.00
2022-10-17T10:59:28.598Z,98.38
2022-10-17T11:02:00.044Z,94.82
2022-10-17T11:04:44.860Z,95.33
2022-10-17T11:07:17.596Z,93.15
2022-10-17T11:10:05.849Z,92.53
2022-10-17T11:12:45.522Z,90.71
2022-10-17T11:15:30.355Z,91.00
2022-10-17T11:18:03.633Z,92.08
2022-10-17T11:20:43.455Z,90.87
2022-10-17T11:23:24.682Z,90.91
2022-10-17T11:25:53.348Z,90.49
2022-10-17T11:28:23.046Z,89.57
2022-10-17T11:30:58.859Z,89.96
2022-10-17T11:33:55.959Z,90.07
2022-10-17T11:36:28.080Z,88.80
2022-10-17T11:39:00.019Z,89.13
2022-10-17T11:41:46.283Z,89.22
2022-10-17T11:44:35.149Z,88.86
2022-10-17T11:47:32.862Z,87.85
2022-10-17T11:53:24.258Z,87.88
2022-10-17T11:55:53.337Z,87.34
2022-10-17T11:58:22.545Z,87.80
2022-10-17T12:01:13.270Z,87.24
2022-10-17T12:03:51.742Z,86.81
2022-10-17T12:06:44.237Z,87.30
2022-10-17T12:09:33.702Z,87.29
2022-10-17T12:12:02.460Z,87.22
2022-10-17T12:14:45.014Z,87.68
2022-10-17T12:17:40.339Z,88.09
2022-10-17T12:20:24.870Z,87.97
2022-10-17T12:23:06.331Z,88.52
2022-10-17T12:25:35.306Z,88.73
2022-10-17T12:28:25.983Z,89.60
2022-10-17T12:31:02.601Z,90.01
2022-10-17T12:33:38.843Z,88.96
2022-10-17T12:36:17.438Z,89.27
2022-10-17T12:38:52.554Z,90.21
2022-10-17T12:41:38.030Z,89.50
2022-10-17T12:44:13.557Z,89.70
2022-10-17T12:46:44.845Z,88.46
2022-10-17T12:49:29.861Z,87.69
2022-10-17T12:52:16.685Z,88.71
2022-10-17T12:55:00.507Z,87.08
2022-10-17T12:57:51.437Z,87.33
2022-10-17T13:01:19.130Z,86.25
2022-10-17T13:03:46.171Z,85.94
2022-10-17T13:06:21.069Z,85.54
2022-10-17T13:08:55.544Z,86.33
2022-10-17T13:11:27.472Z,85.50
2022-10-17T13:13:57.258Z,86.01
2022-10-17T13:16:36.178Z,85.62
2022-10-17T13:19:11.762Z,86.44
2022-10-17T13:21:38.124Z,86.00
2022-10-17T13:24:21.918Z,85.00
2022-10-17T13:26:48.296Z,85.15
2022-10-17T13:29:15.885Z,85.59
2022-10-17T13:31:44.218Z,85.22
2022-10-17T13:34:19.434Z,84.40
2022-10-17T13:36:48.901Z,84.47
2022-10-17T13:39:23.177Z,84.60
2022-10-17T13:41:59.412Z,85.05
2022-10-17T13:44:28.788Z,85.03
2022-10-17T13:46:55.373Z,84.53
2022-10-17T13:49:35.139Z,84.28
2022-10-17T13:52:04.778Z,84.96
2022-10-17T13:54:37.260Z,84.86
2022-10-17T13:57:04.764Z,85.27
2022-10-17T13:59:40.258Z,85.22
2022-10-17T14:02:15.246Z,85.74
2022-10-17T14:05:11.631Z,86.19
2022-10-17T14:08:05.665Z,85.56
2022-10-17T14:10:30.476Z,85.47
2022-10-17T14:12:57.850Z,84.86
2022-10-17T14:15:29.777Z,85.82
2022-10-17T14:18:07.819Z,85.90
2022-10-17T14:23:35.528Z,87.32
2022-10-17T14:26:21.484Z,85.88
2022-10-17T14:29:07.026Z,85.99
2022-10-17T14:31:36.301Z,86.09
2022-10-17T14:34:04.856Z,85.85
2022-10-17T14:36:37.531Z,85.68
2022-10-17T14:39:18.216Z,85.78
2022-10-17T14:41:46.974Z,85.23
2022-10-17T14:44:22.822Z,86.33
2022-10-17T14:46:54.206Z,85.35
2022-10-17T14:49:28.600Z,86.26
2022-10-17T14:52:29.007Z,86.88
2022-10-17T14:54:56.984Z,87.09
2022-10-17T14:57:23.289Z,89.11
2022-10-17T14:59:54.830Z,88.15
2022-10-17T15:02:25.774Z,88.92
2022-10-17T15:04:52.917Z,88.38
2022-10-17T15:07:21.049Z,88.39
2022-10-17T15:09:49.043Z,89.29
2022-10-17T15:12:18.509Z,88.88
2022-10-17T15:14:45.639Z,89.10
2022-10-17T15:17:20.620Z,89.39
2022-10-17T15:19:47.880Z,89.02
2022-10-17T15:22:15.965Z,89.66
2022-10-17T15:24:42.893Z,88.53
2022-10-17T15:27:15.624Z,89.40
2022-10-17T15:29:42.009Z,88.92
2022-10-17T15:32:08.446Z,89.40
2022-10-17T15:34:34.799Z,91.52
2022-10-17T15:37:01.233Z,92.75
2022-10-17T15:39:27.590Z,94.19
2022-10-17T15:41:53.914Z,94.67
2022-10-17T15:44:20.243Z,93.44
2022-10-17T15:46:46.669Z,94.18
2022-10-17T15:49:17.170Z,95.05
2022-10-17T15:51:44.140Z,97.73
2022-10-17T15:54:10.487Z,97.79
2022-10-17T15:56:42.158Z,99.51
2022-10-17T15:59:18.313Z,100.00
2022-10-17T16:01:45.029Z,100.00
2022-10-17T16:04:13.045Z,100.00
2022-10-17T16:06:39.493Z,100.00
2022-10-17T16:09:05.842Z,100.00
2022-10-17T16:11:39.712Z,100.00
2022-10-17T16:14:14.872Z,100.00
2022-10-17T16:16:41.925Z,100.00
2022-10-17T16:19:09.003Z,100.00
2022-10-17T16:21:38.793Z,100.00
2022-10-17T16:24:06.210Z,100.00
2022-10-17T16:26:32.912Z,100.00
2022-10-17T16:29:02.780Z,100.00
2022-10-17T16:31:34.670Z,100.00
2022-10-17T16:34:03.011Z,100.00
2022-10-17T16:36:29.886Z,100.00
2022-10-17T16:38:56.300Z,100.00
2022-10-17T16:41:29.290Z,100.00
2022-10-17T16:43:58.436Z,100.00
2022-10-17T16:46:26.286Z,100.00
2022-10-17T16:48:52.742Z,100.00
2022-10-17T16:51:20.335Z,100.00
2022-10-17T16:53:49.995Z,100.00
2022-10-17T16:56:19.309Z,100.00
2022-10-17T16:58:46.447Z,100.00
2022-10-17T17:01:22.411Z,100.00
2022-10-17T17:03:49.825Z,100.00
2022-10-17T17:06:19.517Z,100.00
2022-10-17T17:08:46.117Z,100.00
2022-10-17T17:11:14.571Z,100.00
2022-10-17T17:13:41.318Z,100.00
2022-10-17T17:16:09.919Z,100.00
2022-10-17T17:18:36.521Z,100.00
2022-10-17T17:21:05.451Z,100.00
2022-10-17T17:23:34.827Z,100.00
2022-10-17T17:26:07.175Z,100.00
2022-10-17T17:28:34.962Z,100.00
2022-10-17T17:31:01.786Z,100.00
2022-10-17T17:33:29.942Z,100.00
2022-10-17T17:35:58.594Z,100.00
2022-10-17T17:38:24.943Z,100.00
2022-10-17T17:40:51.690Z,100.00
2022-10-17T17:43:18.905Z,100.00
2022-10-17T17:45:45.475Z,100.00
2022-10-17T17:48:12.323Z,100.00
2022-10-17T17:50:40.160Z,100.00
2022-10-17T17:53:07.831Z,100.00
2022-10-17T17:55:34.353Z,100.00
2022-10-17T17:58:00.717Z,100.00
2022-10-17T18:00:27.477Z,100.00
2022-10-17T18:02:54.026Z,100.00
2022-10-17T18:05:20.478Z,100.00
2022-10-17T18:07:46.869Z,100.00
2022-10-17T18:12:41.940Z,100.00
2022-10-17T18:15:08.576Z,100.00
2022-10-17T18:17:35.030Z,100.00
2022-10-17T18:20:02.651Z,100.00
2022-10-17T18:22:29.404Z,100.00
2022-10-17T18:24:56.006Z,100.00
2022-10-17T18:27:22.421Z,100.00
2022-10-17T18:29:48.792Z,100.00
2022-10-17T18:32:15.288Z,100.00
2022-10-17T18:34:42.438Z,100.00
2022-10-17T18:37:08.995Z,100.00
2022-10-17T18:39:35.685Z,100.00
2022-10-17T18:42:02.033Z,100.00
2022-10-17T18:44:28.381Z,100.00
2022-10-17T18:46:58.543Z,100.00
2022-10-17T18:49:27.900Z,100.00
2022-10-17T18:51:54.357Z,100.00
2022-10-17T18:54:22.128Z,100.00
2022-10-17T18:56:56.732Z,100.00
2022-10-17T18:59:23.287Z,100.00
2022-10-17T19:01:49.860Z,100.00
2022-10-17T19:04:16.603Z,100.00
2022-10-17T19:06:43.537Z,100.00
2022-10-17T19:09:11.870Z,100.00
2022-10-17T19:11:39.103Z,100.00
2022-10-17T19:14:12.821Z,100.00
2022-10-17T19:16:45.494Z,100.00
2022-10-17T19:19:15.207Z,100.00
2022-10-17T19:21:42.393Z,100.00
2022-10-17T19:24:12.997Z,100.00
2022-10-17T19:26:40.088Z,100.00
2022-10-17T19:29:10.754Z,100.00
2022-10-17T19:31:37.162Z,100.00
2022-10-17T19:34:04.358Z,100.00
2022-10-17T19:36:34.007Z,100.00
2022-10-17T19:39:06.107Z,100.00
2022-10-17T19:41:32.715Z,100.00
2022-10-17T19:44:00.101Z,100.00
2022-10-17T19:46:32.851Z,100.00
2022-10-17T19:49:00.095Z,100.00
2022-10-17T19:51:27.094Z,100.00
2022-10-17T19:53:54.955Z,100.00
2022-10-17T19:56:22.547Z,100.00
2022-10-17T19:58:49.841Z,100.00
2022-10-17T20:01:28.672Z,100.00
2022-10-17T20:03:55.982Z,100.00
2022-10-17T20:06:23.406Z,100.00
2022-10-17T20:08:50.026Z,100.00
2022-10-17T20:11:20.694Z,100.00
2022-10-17T20:13:47.311Z,100.00
2022-10-17T20:16:21.269Z,100.00
2022-10-17T20:18:52.309Z,100.00
2022-10-17T20:21:22.920Z,100.00
2022-10-17T20:23:50.519Z,100.00
2022-10-17T20:26:37.669Z,100.00
2022-10-17T20:29:10.422Z,100.00
2022-10-17T20:31:37.072Z,100.00
2022-10-17T20:34:03.941Z,100.00
2022-10-17T20:36:30.612Z,100.00
2022-10-17T20:38:58.868Z,100.00
2022-10-17T20:41:26.682Z,100.00
2022-10-17T20:43:54.758Z,100.00
2022-10-17T20:46:35.459Z,100.00
2022-10-17T20:49:04.220Z,100.00
2022-10-17T20:51:30.824Z,100.00
2022-10-17T20:56:30.548Z,100.00
2022-10-17T20:58:59.691Z,100.00
2022-10-17T21:01:27.469Z,100.00
2022-10-17T21:03:54.157Z,100.00
2022-10-17T21:06:21.855Z,100.00
2022-10-17T21:08:49.049Z,100.00
2022-10-17T21:11:20.546Z,100.00
2022-10-17T21:13:48.031Z,100.00
2022-10-17T21:16:18.211Z,100.00
2022-10-17T21:18:45.632Z,100.00
2022-10-17T21:21:19.383Z,100.00
2022-10-17T21:23:48.115Z,100.00
2022-10-17T21:26:15.541Z,100.00
2022-10-17T21:28:43.992Z,100.00
2022-10-17T21:31:24.862Z,100.00
2022-10-17T21:33:54.357Z,100.00
2022-10-17T21:36:22.217Z,100.00
2022-10-17T21:38:50.225Z,100.00
2022-10-17T21:41:19.608Z,100.00
2022-10-17T21:43:46.898Z,100.00
2022-10-17T21:46:17.305Z,100.00
2022-10-17T21:48:44.872Z,100.00
2022-10-17T21:51:16.567Z,100.00
2022-10-17T21:53:43.503Z,100.00
2022-10-17T21:56:13.452Z,100.00
2022-10-17T21:58:40.246Z,100.00
2022-10-17T22:01:09.735Z,100.00
2022-10-17T22:03:42.626Z,100.00
2022-10-17T22:09:00.498Z,100.00
2022-10-17T22:11:30.224Z,100.00
2022-10-17T22:14:03.934Z,100.00
2022-10-17T22:16:31.020Z,100.00
2022-10-17T22:19:06.148Z,100.00
2022-10-17T22:21:34.535Z,100.00
2022-10-17T22:24:05.407Z,100.00
2022-10-17T22:26:33.632Z,100.00
2022-10-17T22:29:00.237Z,100.00
2022-10-17T22:31:26.685Z,100.00
2022-10-17T22:33:53.117Z,100.00
2022-10-17T22:36:19.510Z,100.00
2022-10-17T22:38:45.855Z,100.00
2022-10-17T22:41:12.252Z,100.00
2022-10-17T22:43:38.614Z,100.00
2022-10-17T22:46:06.775Z,100.00
2022-10-17T22:48:33.910Z,100.00
2022-10-17T22:51:01.470Z,100.00
2022-10-17T22:53:29.383Z,100.00
2022-10-17T22:55:58.801Z,100.00
2022-10-17T22:58:26.213Z,100.00
2022-10-17T23:00:53.105Z,100.00
2022-10-17T23:03:21.225Z,100.00
2022-10-17T23:05:48.014Z,100.00
2022-10-17T23:08:15.380Z,100.00
2022-10-17T23:10:41.778Z,100.00
2022-10-17T23:13:08.110Z,100.00
2022-10-17T23:15:35.059Z,100.00
2022-10-17T23:18:02.435Z,100.00
2022-10-17T23:20:30.231Z,100.00
2022-10-17T23:22:57.482Z,100.00
2022-10-17T23:25:24.453Z,100.00
2022-10-17T23:27:50.832Z,100.00
2022-10-17T23:30:17.507Z,100.00
2022-10-17T23:32:43.894Z,100.00
2022-10-17T23:35:10.705Z,100.00
2022-10-17T23:37:37.766Z,100.00
2022-10-17T23:40:05.297Z,100.00
2022-10-17T23:42:31.718Z,100.00
2022-10-17T23:44:58.078Z,100.00
2022-10-17T23:47:24.469Z,100.00
2022-10-17T23:49:50.895Z,100.00
2022-10-17T23:52:17.292Z,100.00
2022-10-17T23:54:43.653Z,100.00
2022-10-17T23:57:09.991Z,100.00
2022-10-17T23:59:36.316Z,100.00
